createdAt,value
2019-01-22T00:00:03.631Z,766.18
2019-01-22T00:00:07.969Z,766.15
2019-01-22T00:00:12.311Z,766.2
2019-01-22T00:00:16.671Z,766.24
2019-01-22T00:00:20.946Z,766.21
2019-01-22T00:00:26.722Z,766.27
2019-01-22T00:00:31.388Z,766.26
2019-01-22T00:00:35.736Z,766.26
2019-01-22T00:00:40.080Z,766.26
2019-01-22T00:00:44.247Z,766.3
2019-01-22T00:00:48.634Z,766.31
2019-01-22T00:00:52.989Z,766.29
2019-01-22T00:00:57.245Z,766.33
2019-01-22T00:01:01.629Z,766.33
2019-01-22T00:01:05.991Z,766.29
2019-01-22T00:01:10.269Z,766.3
2019-01-22T00:01:14.643Z,766.31
2019-01-22T00:01:18.895Z,766.34
2019-01-22T00:01:23.264Z,766.32
2019-01-22T00:01:27.616Z,766.32
2019-01-22T00:01:32.489Z,766.32
2019-01-22T00:01:37.875Z,766.32
2019-01-22T00:01:42.247Z,766.33
2019-01-22T00:01:46.598Z,766.33
2019-01-22T00:01:50.841Z,766.34
2019-01-22T00:01:55.214Z,766.37
2019-01-22T00:01:59.563Z,766.33
2019-01-22T00:02:03.943Z,766.35
2019-01-22T00:02:08.281Z,766.35
2019-01-22T00:02:12.641Z,766.36
2019-01-22T00:02:17.001Z,766.32
2019-01-22T00:02:21.355Z,766.4
2019-01-22T00:02:25.714Z,766.39
2019-01-22T00:02:30.063Z,766.38
2019-01-22T00:02:34.402Z,766.38
2019-01-22T00:02:38.748Z,766.41
2019-01-22T00:02:44.830Z,766.38
2019-01-22T00:02:49.256Z,766.41
2019-01-22T00:02:53.603Z,766.38
2019-01-22T00:02:57.980Z,766.42
2019-01-22T00:03:02.260Z,766.41
2019-01-22T00:03:06.630Z,766.42
2019-01-22T00:03:10.975Z,766.42
2019-01-22T00:03:15.246Z,766.41
2019-01-22T00:03:19.504Z,766.41
2019-01-22T00:03:23.760Z,766.42
2019-01-22T00:03:28.114Z,766.42
2019-01-22T00:03:32.457Z,766.46
2019-01-22T00:03:36.720Z,766.47
2019-01-22T00:03:41.077Z,766.45
2019-01-22T00:03:45.483Z,766.46
2019-01-22T00:03:51.094Z,766.46
2019-01-22T00:03:55.875Z,766.48
2019-01-22T00:04:00.237Z,766.5
2019-01-22T00:04:04.608Z,766.46
2019-01-22T00:04:08.793Z,766.49
2019-01-22T00:04:13.152Z,766.5
2019-01-22T00:04:17.452Z,766.5
2019-01-22T00:04:21.806Z,766.51
2019-01-22T00:04:26.063Z,766.49
2019-01-22T00:04:30.401Z,766.5
2019-01-22T00:04:34.757Z,766.53
2019-01-22T00:04:39.101Z,766.54
2019-01-22T00:04:43.453Z,766.55
2019-01-22T00:04:47.795Z,766.53
2019-01-22T00:04:52.136Z,766.56
2019-01-22T00:04:57.044Z,766.54
2019-01-22T00:05:02.747Z,766.54
2019-01-22T00:05:07.112Z,766.58
2019-01-22T00:05:11.458Z,766.56
2019-01-22T00:05:15.711Z,766.55
2019-01-22T00:05:20.045Z,766.6
2019-01-22T00:05:24.328Z,766.57
2019-01-22T00:05:28.666Z,766.57
2019-01-22T00:05:33.009Z,766.54
2019-01-22T00:05:37.366Z,766.58
2019-01-22T00:05:41.625Z,766.56
2019-01-22T00:05:45.982Z,766.58
2019-01-22T00:05:50.327Z,766.62
2019-01-22T00:05:54.672Z,766.61
2019-01-22T00:05:59.039Z,766.62
2019-01-22T00:06:03.409Z,766.6
2019-01-22T00:06:09.558Z,766.61
2019-01-22T00:06:14.065Z,766.64
2019-01-22T00:06:18.332Z,766.6
2019-01-22T00:06:22.702Z,766.59
2019-01-22T00:06:27.055Z,766.63
2019-01-22T00:06:31.426Z,766.62
2019-01-22T00:06:35.593Z,766.68
2019-01-22T00:06:39.878Z,766.66
2019-01-22T00:06:44.024Z,766.7
2019-01-22T00:06:48.437Z,766.63
2019-01-22T00:06:52.788Z,766.62
2019-01-22T00:06:57.157Z,766.65
2019-01-22T00:07:01.528Z,766.62
2019-01-22T00:07:05.888Z,766.63
2019-01-22T00:07:10.266Z,766.62
2019-01-22T00:07:15.899Z,766.67
2019-01-22T00:07:20.908Z,766.67
2019-01-22T00:07:25.259Z,766.67
2019-01-22T00:07:29.611Z,766.65
2019-01-22T00:07:33.959Z,766.7
2019-01-22T00:07:38.311Z,766.69
2019-01-22T00:07:42.662Z,766.67
2019-01-22T00:07:47.024Z,766.72
2019-01-22T00:07:51.397Z,766.68
2019-01-22T00:07:55.753Z,766.65
2019-01-22T00:08:00.098Z,766.66
2019-01-22T00:08:04.455Z,766.69
2019-01-22T00:08:08.814Z,766.7
2019-01-22T00:08:13.184Z,766.71
2019-01-22T00:08:17.586Z,766.68
2019-01-22T00:08:22.533Z,766.69
2019-01-22T00:08:27.773Z,766.71
2019-01-22T00:08:32.029Z,766.7
2019-01-22T00:08:36.395Z,766.67
2019-01-22T00:08:40.753Z,766.65
2019-01-22T00:08:45.126Z,766.67
2019-01-22T00:08:49.483Z,766.65
2019-01-22T00:08:53.826Z,766.66
2019-01-22T00:08:58.170Z,766.71
2019-01-22T00:09:02.620Z,766.71
2019-01-22T00:09:06.970Z,766.71
2019-01-22T00:09:11.247Z,766.73
2019-01-22T00:09:15.593Z,766.73
2019-01-22T00:09:19.959Z,766.74
2019-01-22T00:09:24.315Z,766.75
2019-01-22T00:09:28.812Z,766.74
2019-01-22T00:09:34.684Z,766.74
2019-01-22T00:09:39.097Z,766.74
2019-01-22T00:09:43.452Z,766.74
2019-01-22T00:09:47.808Z,766.75
2019-01-22T00:09:52.184Z,766.74
2019-01-22T00:09:56.533Z,766.78
2019-01-22T00:10:00.947Z,766.79
2019-01-22T00:10:05.334Z,766.8
2019-01-22T00:10:10.603Z,766.76
2019-01-22T00:10:14.968Z,766.8
2019-01-22T00:10:19.349Z,766.79
2019-01-22T00:10:23.721Z,766.75
2019-01-22T00:10:28.075Z,766.79
2019-01-22T00:10:32.436Z,766.85
2019-01-22T00:10:36.586Z,766.79
2019-01-22T00:10:42.545Z,766.8
2019-01-22T00:10:47.061Z,766.85
2019-01-22T00:10:51.311Z,766.84
2019-01-22T00:10:55.660Z,766.87
2019-01-22T00:11:00.006Z,766.85
2019-01-22T00:11:04.365Z,766.85
2019-01-22T00:11:08.730Z,766.84
2019-01-22T00:11:13.079Z,766.85
2019-01-22T00:11:17.327Z,766.86
2019-01-22T00:11:21.595Z,766.87
2019-01-22T00:11:25.959Z,766.88
2019-01-22T00:11:30.207Z,766.87
2019-01-22T00:11:34.508Z,766.92
2019-01-22T00:11:38.856Z,766.91
2019-01-22T00:11:43.197Z,766.87
2019-01-22T00:11:48.734Z,766.89
2019-01-22T00:11:53.551Z,766.84
2019-01-22T00:11:57.922Z,766.89
2019-01-22T00:12:02.321Z,766.91
2019-01-22T00:12:06.679Z,766.92
2019-01-22T00:12:10.914Z,766.92
2019-01-22T00:12:15.285Z,766.92
2019-01-22T00:12:19.560Z,766.9
2019-01-22T00:12:23.916Z,766.85
2019-01-22T00:12:28.276Z,766.9
2019-01-22T00:12:32.610Z,766.91
2019-01-22T00:12:36.960Z,766.93
2019-01-22T00:12:41.327Z,766.92
2019-01-22T00:12:45.721Z,766.89
2019-01-22T00:12:50.085Z,766.95
2019-01-22T00:12:55.033Z,766.91
2019-01-22T00:13:00.704Z,766.93
2019-01-22T00:13:05.099Z,766.91
2019-01-22T00:13:09.401Z,766.94
2019-01-22T00:13:13.770Z,766.88
2019-01-22T00:13:18.117Z,766.92
2019-01-22T00:13:22.496Z,766.91
2019-01-22T00:13:26.840Z,766.92
2019-01-22T00:13:31.085Z,766.94
2019-01-22T00:13:35.333Z,766.93
2019-01-22T00:13:39.622Z,766.93
2019-01-22T00:13:43.990Z,766.95
2019-01-22T00:13:48.273Z,766.96
2019-01-22T00:13:52.631Z,766.91
2019-01-22T00:13:56.987Z,766.92
2019-01-22T00:14:01.231Z,766.94
2019-01-22T00:14:07.512Z,766.86
2019-01-22T00:14:11.991Z,766.94
2019-01-22T00:14:16.345Z,766.94
2019-01-22T00:14:20.710Z,766.96
2019-01-22T00:14:25.053Z,766.93
2019-01-22T00:14:29.425Z,766.95
2019-01-22T00:14:33.786Z,766.93
2019-01-22T00:14:38.128Z,766.94
2019-01-22T00:14:42.558Z,766.95
2019-01-22T00:14:46.905Z,766.94
2019-01-22T00:14:51.154Z,766.97
2019-01-22T00:14:55.559Z,766.96
2019-01-22T00:14:59.725Z,766.96
2019-01-22T00:15:04.137Z,766.95
2019-01-22T00:15:08.470Z,766.98
2019-01-22T00:15:14.219Z,766.95
2019-01-22T00:15:19.066Z,766.98
2019-01-22T00:15:23.424Z,766.97
2019-01-22T00:15:27.750Z,766.98
2019-01-22T00:15:32.093Z,766.96
2019-01-22T00:15:36.364Z,766.96
2019-01-22T00:15:40.655Z,766.98
2019-01-22T00:15:45.048Z,766.96
2019-01-22T00:15:49.379Z,767
2019-01-22T00:15:53.736Z,766.94
2019-01-22T00:15:58.098Z,766.92
2019-01-22T00:16:02.540Z,766.92
2019-01-22T00:16:06.810Z,766.97
2019-01-22T00:16:11.161Z,766.93
2019-01-22T00:16:15.407Z,766.93
2019-01-22T00:16:20.366Z,766.95
2019-01-22T00:16:25.521Z,766.93
2019-01-22T00:16:29.761Z,766.91
2019-01-22T00:16:34.019Z,766.92
2019-01-22T00:16:38.366Z,766.91
2019-01-22T00:16:42.712Z,766.93
2019-01-22T00:16:46.949Z,766.95
2019-01-22T00:16:52.497Z,766.94
2019-01-22T00:16:56.876Z,766.92
2019-01-22T00:17:01.282Z,766.89
2019-01-22T00:17:05.628Z,766.92
2019-01-22T00:17:09.966Z,766.93
2019-01-22T00:17:14.222Z,766.9
2019-01-22T00:17:18.511Z,766.91
2019-01-22T00:17:22.779Z,766.94
2019-01-22T00:17:27.739Z,766.95
2019-01-22T00:17:33.548Z,766.94
2019-01-22T00:17:37.912Z,767.06
2019-01-22T00:17:42.287Z,767.01
2019-01-22T00:17:46.555Z,766.99
2019-01-22T00:17:50.926Z,766.98
2019-01-22T00:17:55.287Z,766.92
2019-01-22T00:17:59.644Z,766.93
2019-01-22T00:18:03.919Z,766.93
2019-01-22T00:18:08.167Z,766.88
2019-01-22T00:18:12.539Z,766.89
2019-01-22T00:18:16.906Z,766.89
2019-01-22T00:18:21.151Z,766.89
2019-01-22T00:18:25.520Z,766.86
2019-01-22T00:18:29.895Z,766.9
2019-01-22T00:18:34.249Z,766.92
2019-01-22T00:18:39.634Z,766.9
2019-01-22T00:18:44.225Z,766.92
2019-01-22T00:18:48.605Z,766.94
2019-01-22T00:18:52.954Z,766.95
2019-01-22T00:18:57.229Z,766.96
2019-01-22T00:19:01.482Z,766.92
2019-01-22T00:19:05.832Z,766.93
2019-01-22T00:19:10.209Z,766.9
2019-01-22T00:19:14.466Z,766.9
2019-01-22T00:19:18.840Z,766.9
2019-01-22T00:19:23.199Z,766.93
2019-01-22T00:19:27.557Z,766.92
2019-01-22T00:19:31.809Z,766.92
2019-01-22T00:19:36.148Z,766.89
2019-01-22T00:19:40.487Z,766.88
2019-01-22T00:19:45.451Z,766.88
2019-01-22T00:19:50.737Z,766.87
2019-01-22T00:19:55.080Z,766.87
2019-01-22T00:19:59.426Z,766.86
2019-01-22T00:20:03.913Z,766.85
2019-01-22T00:20:08.270Z,766.85
2019-01-22T00:20:12.439Z,766.87
2019-01-22T00:20:16.612Z,766.89
2019-01-22T00:20:20.956Z,766.86
2019-01-22T00:20:25.318Z,766.89
2019-01-22T00:20:29.683Z,766.87
2019-01-22T00:20:33.941Z,766.88
2019-01-22T00:20:38.282Z,766.85
2019-01-22T00:20:42.531Z,766.87
2019-01-22T00:20:46.910Z,766.92
2019-01-22T00:20:51.267Z,766.93
2019-01-22T00:20:57.271Z,766.9
2019-01-22T00:21:01.724Z,766.89
2019-01-22T00:21:06.075Z,766.91
2019-01-22T00:21:10.338Z,766.88
2019-01-22T00:21:14.697Z,766.89
2019-01-22T00:21:18.949Z,766.86
2019-01-22T00:21:23.287Z,766.86
2019-01-22T00:21:27.632Z,766.83
2019-01-22T00:21:31.986Z,766.85
2019-01-22T00:21:36.245Z,766.84
2019-01-22T00:21:40.503Z,766.83
2019-01-22T00:21:44.841Z,766.86
2019-01-22T00:21:49.204Z,766.83
2019-01-22T00:21:53.567Z,766.82
2019-01-22T00:21:57.920Z,766.84
2019-01-22T00:22:03.564Z,766.77
2019-01-22T00:22:08.481Z,766.82
2019-01-22T00:22:12.837Z,766.83
2019-01-22T00:22:17.091Z,766.8
2019-01-22T00:22:21.457Z,766.79
2019-01-22T00:22:25.714Z,766.78
2019-01-22T00:22:30.081Z,766.74
2019-01-22T00:22:35.610Z,766.77
2019-01-22T00:22:40.022Z,766.75
2019-01-22T00:22:44.355Z,766.74
2019-01-22T00:22:48.708Z,766.68
2019-01-22T00:22:53.100Z,766.68
2019-01-22T00:23:04.463Z,766.64
2019-01-22T00:23:09.205Z,766.65
2019-01-22T00:23:14.842Z,766.59
2019-01-22T00:23:19.193Z,766.59
2019-01-22T00:23:23.543Z,766.57
2019-01-22T00:23:27.906Z,766.54
2019-01-22T00:23:32.048Z,766.54
2019-01-22T00:23:36.415Z,766.53
2019-01-22T00:23:40.793Z,766.54
2019-01-22T00:23:45.115Z,766.56
2019-01-22T00:23:49.484Z,766.52
2019-01-22T00:23:53.827Z,766.5
2019-01-22T00:23:58.170Z,766.5
2019-01-22T00:24:02.568Z,766.51
2019-01-22T00:24:06.830Z,766.47
2019-01-22T00:24:11.194Z,766.48
2019-01-22T00:24:15.545Z,766.48
2019-01-22T00:24:21.554Z,766.44
2019-01-22T00:24:26.184Z,766.41
2019-01-22T00:24:30.551Z,766.41
2019-01-22T00:24:34.902Z,766.4
2019-01-22T00:24:39.156Z,766.38
2019-01-22T00:24:43.510Z,766.41
2019-01-22T00:24:47.882Z,766.4
2019-01-22T00:24:52.214Z,766.36
2019-01-22T00:24:56.504Z,766.39
2019-01-22T00:25:01.004Z,766.35
2019-01-22T00:25:05.550Z,766.37
2019-01-22T00:25:09.910Z,766.32
2019-01-22T00:25:14.171Z,766.33
2019-01-22T00:25:18.550Z,766.36
2019-01-22T00:25:22.915Z,766.32
2019-01-22T00:25:28.215Z,766.32
2019-01-22T00:25:33.174Z,766.24
2019-01-22T00:25:37.538Z,766.25
2019-01-22T00:25:41.893Z,766.24
2019-01-22T00:25:46.235Z,766.21
2019-01-22T00:25:50.590Z,766.18
2019-01-22T00:25:54.984Z,766.22
2019-01-22T00:25:59.342Z,766.17
2019-01-22T00:26:03.505Z,766.12
2019-01-22T00:26:07.671Z,766.13
2019-01-22T00:26:12.032Z,766.15
2019-01-22T00:26:16.377Z,766.13
2019-01-22T00:26:20.655Z,766.12
2019-01-22T00:26:24.994Z,766.1
2019-01-22T00:26:29.236Z,766.12
2019-01-22T00:26:33.883Z,766.03
2019-01-22T00:26:39.763Z,766.02
2019-01-22T00:26:44.124Z,766.02
2019-01-22T00:26:48.471Z,766
2019-01-22T00:26:52.721Z,766.02
2019-01-22T00:26:56.983Z,766
2019-01-22T00:27:01.335Z,766.03
2019-01-22T00:27:05.691Z,766
2019-01-22T00:27:10.055Z,765.99
2019-01-22T00:27:14.415Z,766.06
2019-01-22T00:27:18.777Z,766.01
2019-01-22T00:27:23.129Z,765.99
2019-01-22T00:27:27.502Z,766.02
2019-01-22T00:27:31.763Z,765.98
2019-01-22T00:27:36.117Z,766
2019-01-22T00:27:40.466Z,765.99
2019-01-22T00:27:46.421Z,766.01
2019-01-22T00:27:51.028Z,765.99
2019-01-22T00:27:55.379Z,765.99
2019-01-22T00:27:59.730Z,766.01
2019-01-22T00:28:04.229Z,765.97
2019-01-22T00:28:08.640Z,766.02
2019-01-22T00:28:12.895Z,766
2019-01-22T00:28:17.154Z,765.99
2019-01-22T00:28:21.502Z,765.98
2019-01-22T00:28:26.984Z,765.98
2019-01-22T00:28:31.227Z,765.98
2019-01-22T00:28:35.573Z,766.01
2019-01-22T00:28:39.939Z,765.99
2019-01-22T00:28:44.301Z,765.98
2019-01-22T00:28:48.654Z,765.96
2019-01-22T00:28:54.215Z,765.96
2019-01-22T00:28:58.671Z,766
2019-01-22T00:29:02.986Z,765.98
2019-01-22T00:29:07.339Z,765.95
2019-01-22T00:29:11.587Z,765.98
2019-01-22T00:29:15.842Z,765.97
2019-01-22T00:29:20.011Z,765.98
2019-01-22T00:29:24.400Z,766.02
2019-01-22T00:29:28.662Z,765.96
2019-01-22T00:29:33.015Z,765.92
2019-01-22T00:29:37.249Z,765.98
2019-01-22T00:29:41.519Z,765.94
2019-01-22T00:29:45.859Z,765.99
2019-01-22T00:29:50.144Z,766
2019-01-22T00:29:54.499Z,765.97
2019-01-22T00:29:59.446Z,765.97
2019-01-22T00:30:05.161Z,765.97
2019-01-22T00:30:09.417Z,765.96
2019-01-22T00:30:13.779Z,765.96
2019-01-22T00:30:18.136Z,765.92
2019-01-22T00:30:22.544Z,765.96
2019-01-22T00:30:26.706Z,765.96
2019-01-22T00:30:31.062Z,765.95
2019-01-22T00:30:35.425Z,765.95
2019-01-22T00:30:39.777Z,765.95
2019-01-22T00:30:43.924Z,765.97
2019-01-22T00:30:47.970Z,765.91
2019-01-22T00:30:52.309Z,765.94
2019-01-22T00:30:56.717Z,766.31
2019-01-22T00:31:01.071Z,766.78
2019-01-22T00:31:05.519Z,767.13
2019-01-22T00:31:11.532Z,767.32
2019-01-22T00:31:15.975Z,767.4
2019-01-22T00:31:20.342Z,767.55
2019-01-22T00:31:24.706Z,767.65
2019-01-22T00:31:29.061Z,767.76
2019-01-22T00:31:33.407Z,767.8
2019-01-22T00:31:37.683Z,767.91
2019-01-22T00:31:41.924Z,768.01
2019-01-22T00:31:46.193Z,768.1
2019-01-22T00:31:50.543Z,768.19
2019-01-22T00:31:54.795Z,768.27
2019-01-22T00:31:59.146Z,768.32
2019-01-22T00:32:03.555Z,768.43
2019-01-22T00:32:07.901Z,768.45
2019-01-22T00:32:12.266Z,768.52
2019-01-22T00:32:17.792Z,768.58
2019-01-22T00:32:22.891Z,768.66
2019-01-22T00:32:27.232Z,768.69
2019-01-22T00:32:31.580Z,768.75
2019-01-22T00:32:35.920Z,768.82
2019-01-22T00:32:40.170Z,768.88
2019-01-22T00:32:44.523Z,768.92
2019-01-22T00:32:48.864Z,768.97
2019-01-22T00:32:53.211Z,769.02
2019-01-22T00:32:57.476Z,769.03
2019-01-22T00:33:01.761Z,769.1
2019-01-22T00:33:06.116Z,769.13
2019-01-22T00:33:10.461Z,769.16
2019-01-22T00:33:14.732Z,769.17
2019-01-22T00:33:19.091Z,769.23
2019-01-22T00:33:23.661Z,769.27
2019-01-22T00:33:29.514Z,769.32
2019-01-22T00:33:33.767Z,769.34
2019-01-22T00:33:38.126Z,769.38
2019-01-22T00:33:42.396Z,769.42
2019-01-22T00:33:46.660Z,769.44
2019-01-22T00:33:51.064Z,769.47
2019-01-22T00:33:55.414Z,769.5
2019-01-22T00:33:59.781Z,769.51
2019-01-22T00:34:04.033Z,769.56
2019-01-22T00:34:08.377Z,769.57
2019-01-22T00:34:12.629Z,769.64
2019-01-22T00:34:16.989Z,769.68
2019-01-22T00:34:21.355Z,769.71
2019-01-22T00:34:25.701Z,769.69
2019-01-22T00:34:30.070Z,769.74
2019-01-22T00:34:35.940Z,769.77
2019-01-22T00:34:40.556Z,769.79
2019-01-22T00:34:44.908Z,769.82
2019-01-22T00:34:49.157Z,769.82
2019-01-22T00:34:53.501Z,769.83
2019-01-22T00:34:57.753Z,769.89
2019-01-22T00:35:02.127Z,769.91
2019-01-22T00:35:06.389Z,769.92
2019-01-22T00:35:10.656Z,769.97
2019-01-22T00:35:14.947Z,769.93
2019-01-22T00:35:19.224Z,769.95
2019-01-22T00:35:23.652Z,769.98
2019-01-22T00:35:28.016Z,770
2019-01-22T00:35:32.366Z,770.03
2019-01-22T00:35:36.414Z,770.03
2019-01-22T00:35:41.288Z,770.04
2019-01-22T00:35:46.693Z,770.06
2019-01-22T00:35:51.068Z,770.08
2019-01-22T00:35:55.428Z,770.03
2019-01-22T00:35:59.802Z,770.02
2019-01-22T00:36:04.157Z,770.1
2019-01-22T00:36:08.531Z,770.1
2019-01-22T00:36:12.784Z,770.1
2019-01-22T00:36:17.180Z,770.13
2019-01-22T00:36:21.530Z,770.17
2019-01-22T00:36:25.920Z,770.2
2019-01-22T00:36:30.159Z,770.15
2019-01-22T00:36:34.522Z,770.19
2019-01-22T00:36:38.869Z,770.17
2019-01-22T00:36:43.238Z,770.17
2019-01-22T00:36:47.594Z,770.17
2019-01-22T00:36:53.427Z,770.19
2019-01-22T00:36:57.887Z,770.2
2019-01-22T00:37:02.229Z,770.21
2019-01-22T00:37:06.476Z,770.21
2019-01-22T00:37:10.813Z,770.21
2019-01-22T00:37:15.174Z,770.25
2019-01-22T00:37:19.540Z,770.28
2019-01-22T00:37:23.884Z,770.26
2019-01-22T00:37:28.230Z,770.29
2019-01-22T00:37:32.575Z,770.3
2019-01-22T00:37:36.928Z,770.31
2019-01-22T00:37:41.285Z,770.33
2019-01-22T00:37:45.655Z,770.31
2019-01-22T00:37:50.005Z,770.33
2019-01-22T00:37:54.346Z,770.32
2019-01-22T00:37:59.912Z,770.36
2019-01-22T00:38:04.920Z,770.33
2019-01-22T00:38:09.080Z,770.32
2019-01-22T00:38:13.443Z,770.29
2019-01-22T00:38:17.800Z,770.33
2019-01-22T00:38:22.153Z,770.32
2019-01-22T00:38:26.414Z,770.35
2019-01-22T00:38:30.752Z,770.38
2019-01-22T00:38:35.097Z,770.38
2019-01-22T00:38:39.467Z,770.36
2019-01-22T00:38:43.816Z,770.35
2019-01-22T00:38:48.195Z,770.39
2019-01-22T00:38:52.453Z,770.4
2019-01-22T00:38:56.718Z,770.39
2019-01-22T00:39:01.052Z,770.41
2019-01-22T00:39:06.312Z,770.39
2019-01-22T00:39:11.970Z,770.39
2019-01-22T00:39:16.234Z,770.39
2019-01-22T00:39:20.591Z,770.39
2019-01-22T00:39:24.931Z,770.42
2019-01-22T00:39:29.298Z,770.44
2019-01-22T00:39:33.664Z,770.44
2019-01-22T00:39:38.010Z,770.4
2019-01-22T00:39:42.267Z,770.44
2019-01-22T00:39:46.605Z,770.45
2019-01-22T00:39:50.937Z,770.48
2019-01-22T00:39:55.276Z,770.47
2019-01-22T00:39:59.660Z,770.45
2019-01-22T00:40:03.944Z,770.48
2019-01-22T00:40:08.280Z,770.51
2019-01-22T00:40:12.583Z,770.53
2019-01-22T00:40:18.687Z,770.54
2019-01-22T00:40:23.172Z,770.53
2019-01-22T00:40:27.530Z,770.53
2019-01-22T00:40:31.888Z,770.55
2019-01-22T00:40:36.241Z,770.55
2019-01-22T00:40:40.377Z,770.55
2019-01-22T00:40:44.622Z,770.58
2019-01-22T00:40:48.969Z,770.56
2019-01-22T00:40:53.128Z,770.57
2019-01-22T00:40:57.494Z,770.57
2019-01-22T00:41:01.833Z,770.56
2019-01-22T00:41:06.170Z,770.6
2019-01-22T00:41:10.461Z,770.59
2019-01-22T00:41:14.811Z,770.62
2019-01-22T00:41:19.063Z,770.63
2019-01-22T00:41:24.224Z,770.62
2019-01-22T00:41:29.260Z,770.66
2019-01-22T00:41:33.604Z,770.63
2019-01-22T00:41:37.966Z,770.67
2019-01-22T00:41:42.327Z,770.66
2019-01-22T00:41:46.606Z,770.66
2019-01-22T00:41:50.985Z,770.7
2019-01-22T00:41:55.327Z,770.64
2019-01-22T00:41:59.675Z,770.62
2019-01-22T00:42:03.922Z,770.66
2019-01-22T00:42:08.279Z,770.66
2019-01-22T00:42:12.671Z,770.67
2019-01-22T00:42:17.040Z,770.72
2019-01-22T00:42:21.096Z,770.69
2019-01-22T00:42:25.233Z,770.68
2019-01-22T00:42:29.909Z,770.71
2019-01-22T00:42:35.810Z,770.73
2019-01-22T00:42:40.207Z,770.73
2019-01-22T00:42:44.462Z,770.73
2019-01-22T00:42:48.808Z,770.73
2019-01-22T00:42:53.160Z,770.74
2019-01-22T00:42:57.402Z,770.73
2019-01-22T00:43:01.756Z,770.75
2019-01-22T00:43:06.120Z,770.76
2019-01-22T00:43:10.501Z,770.74
2019-01-22T00:43:14.846Z,770.75
2019-01-22T00:43:19.194Z,770.76
2019-01-22T00:43:23.538Z,770.76
2019-01-22T00:43:27.771Z,770.77
2019-01-22T00:43:32.123Z,770.75
2019-01-22T00:43:36.480Z,770.75
2019-01-22T00:43:42.124Z,770.8
2019-01-22T00:43:46.784Z,770.77
2019-01-22T00:43:51.131Z,770.79
2019-01-22T00:43:55.486Z,770.79
2019-01-22T00:43:59.844Z,770.77
2019-01-22T00:44:04.224Z,770.79
2019-01-22T00:44:08.591Z,770.81
2019-01-22T00:44:13.005Z,770.79
2019-01-22T00:44:17.246Z,770.79
2019-01-22T00:44:21.483Z,770.8
2019-01-22T00:44:25.845Z,770.78
2019-01-22T00:44:30.194Z,770.82
2019-01-22T00:44:34.539Z,770.81
2019-01-22T00:44:38.881Z,770.8
2019-01-22T00:44:43.031Z,770.82
2019-01-22T00:44:47.911Z,770.79
2019-01-22T00:44:53.405Z,770.79
2019-01-22T00:44:57.777Z,770.83
2019-01-22T00:45:02.127Z,770.82
2019-01-22T00:45:06.481Z,770.85
2019-01-22T00:45:10.834Z,770.82
2019-01-22T00:45:15.193Z,770.86
2019-01-22T00:45:19.540Z,770.8
2019-01-22T00:45:23.798Z,770.85
2019-01-22T00:45:28.160Z,770.87
2019-01-22T00:45:32.524Z,770.84
2019-01-22T00:45:36.907Z,770.85
2019-01-22T00:45:41.277Z,770.79
2019-01-22T00:45:45.626Z,770.88
2019-01-22T00:45:49.971Z,770.85
2019-01-22T00:45:54.345Z,770.89
2019-01-22T00:46:00.447Z,770.9
2019-01-22T00:46:04.953Z,770.86
2019-01-22T00:46:09.328Z,770.87
2019-01-22T00:46:13.682Z,770.86
2019-01-22T00:46:18.025Z,770.86
2019-01-22T00:46:22.362Z,770.89
2019-01-22T00:46:26.713Z,770.91
2019-01-22T00:46:31.064Z,770.89
2019-01-22T00:46:35.325Z,770.9
2019-01-22T00:46:39.665Z,770.91
2019-01-22T00:46:44.032Z,770.9
2019-01-22T00:46:48.282Z,770.91
2019-01-22T00:46:52.645Z,770.93
2019-01-22T00:46:57.032Z,770.95
2019-01-22T00:47:02.418Z,770.9
2019-01-22T00:47:08.577Z,770.9
2019-01-22T00:47:12.925Z,770.93
2019-01-22T00:47:17.285Z,770.92
2019-01-22T00:47:21.634Z,770.93
2019-01-22T00:47:25.987Z,770.94
2019-01-22T00:47:30.251Z,770.92
2019-01-22T00:47:34.606Z,770.93
2019-01-22T00:47:38.967Z,770.89
2019-01-22T00:47:43.244Z,770.9
2019-01-22T00:47:47.626Z,770.91
2019-01-22T00:47:52.020Z,770.9
2019-01-22T00:47:56.418Z,770.91
2019-01-22T00:48:00.705Z,770.95
2019-01-22T00:48:05.162Z,770.92
2019-01-22T00:48:09.434Z,770.91
2019-01-22T00:48:15.483Z,770.92
2019-01-22T00:48:20.028Z,770.92
2019-01-22T00:48:24.303Z,770.94
2019-01-22T00:48:28.653Z,770.94
2019-01-22T00:48:33.006Z,770.92
2019-01-22T00:48:37.356Z,770.96
2019-01-22T00:48:41.597Z,770.92
2019-01-22T00:48:45.970Z,771
2019-01-22T00:48:50.216Z,770.94
2019-01-22T00:48:54.576Z,770.95
2019-01-22T00:48:58.919Z,770.96
2019-01-22T00:49:03.348Z,770.94
2019-01-22T00:49:07.695Z,770.92
2019-01-22T00:49:12.098Z,770.94
2019-01-22T00:49:16.428Z,770.94
2019-01-22T00:49:21.955Z,770.95
2019-01-22T00:49:26.919Z,770.91
2019-01-22T00:49:31.299Z,770.92
2019-01-22T00:49:35.577Z,770.94
2019-01-22T00:49:39.925Z,770.94
2019-01-22T00:49:44.258Z,770.94
2019-01-22T00:49:48.493Z,770.94
2019-01-22T00:49:52.822Z,770.95
2019-01-22T00:49:57.171Z,770.93
2019-01-22T00:50:01.536Z,770.92
2019-01-22T00:50:05.820Z,770.92
2019-01-22T00:50:10.151Z,770.89
2019-01-22T00:50:14.396Z,770.95
2019-01-22T00:50:18.751Z,770.98
2019-01-22T00:50:23.150Z,770.91
2019-01-22T00:50:27.787Z,770.95
2019-01-22T00:50:33.551Z,770.93
2019-01-22T00:50:37.892Z,770.86
2019-01-22T00:50:42.142Z,770.94
2019-01-22T00:50:46.482Z,770.93
2019-01-22T00:50:50.721Z,770.9
2019-01-22T00:50:55.076Z,770.88
2019-01-22T00:50:59.280Z,770.9
2019-01-22T00:51:03.622Z,770.94
2019-01-22T00:51:07.991Z,770.87
2019-01-22T00:51:12.251Z,770.93
2019-01-22T00:51:16.513Z,770.93
2019-01-22T00:51:20.860Z,770.93
2019-01-22T00:51:25.208Z,770.9
2019-01-22T00:51:29.554Z,770.92
2019-01-22T00:51:33.894Z,770.9
2019-01-22T00:51:39.838Z,770.92
2019-01-22T00:51:44.576Z,770.9
2019-01-22T00:51:48.938Z,770.91
2019-01-22T00:51:53.237Z,770.88
2019-01-22T00:51:57.604Z,770.9
2019-01-22T00:52:01.757Z,770.88
2019-01-22T00:52:06.140Z,770.83
2019-01-22T00:52:10.329Z,770.84
2019-01-22T00:52:14.685Z,770.82
2019-01-22T00:52:19.041Z,770.82
2019-01-22T00:52:23.198Z,770.79
2019-01-22T00:52:27.456Z,770.79
2019-01-22T00:52:31.822Z,770.75
2019-01-22T00:52:36.180Z,770.78
2019-01-22T00:52:40.522Z,770.77
2019-01-22T00:52:45.735Z,770.75
2019-01-22T00:52:51.145Z,770.74
2019-01-22T00:52:55.498Z,770.69
2019-01-22T00:52:59.850Z,770.71
2019-01-22T00:53:10.670Z,770.69
2019-01-22T00:53:15.028Z,770.65
2019-01-22T00:53:19.387Z,770.64
2019-01-22T00:53:23.761Z,770.66
2019-01-22T00:53:28.120Z,770.69
2019-01-22T00:53:32.473Z,770.64
2019-01-22T00:53:36.836Z,770.62
2019-01-22T00:53:41.180Z,770.63
2019-01-22T00:53:45.556Z,770.61
2019-01-22T00:53:49.786Z,770.6
2019-01-22T00:53:55.131Z,770.56
2019-01-22T00:53:59.961Z,770.6
2019-01-22T00:54:04.307Z,770.57
2019-01-22T00:54:08.665Z,770.55
2019-01-22T00:54:13.000Z,770.59
2019-01-22T00:54:17.343Z,770.56
2019-01-22T00:54:21.709Z,770.55
2019-01-22T00:54:26.044Z,770.55
2019-01-22T00:54:30.411Z,770.6
2019-01-22T00:54:34.666Z,770.6
2019-01-22T00:54:39.030Z,770.59
2019-01-22T00:54:43.368Z,770.6
2019-01-22T00:54:47.706Z,770.58
2019-01-22T00:54:51.967Z,770.56
2019-01-22T00:54:56.329Z,770.59
2019-01-22T00:55:01.247Z,770.59
2019-01-22T00:55:06.711Z,770.57
2019-01-22T00:55:11.093Z,770.62
2019-01-22T00:55:15.392Z,770.6
2019-01-22T00:55:19.755Z,770.62
2019-01-22T00:55:24.130Z,770.63
2019-01-22T00:55:28.402Z,770.62
2019-01-22T00:55:32.743Z,770.58
2019-01-22T00:55:37.100Z,770.63
2019-01-22T00:55:41.458Z,770.62
2019-01-22T00:55:45.806Z,770.59
2019-01-22T00:55:50.150Z,770.62
2019-01-22T00:55:54.528Z,770.61
2019-01-22T00:55:58.866Z,770.62
2019-01-22T00:56:03.217Z,770.63